Time;durP1;ratioP1;P1;durP2;ratioP2;P2;SDS_P1;SDS_P2;PMS_P1;PMS_P2;Temp;Humidity;BMP_temperature;BMP_pressure;BME280_temperature;BME280_humidity;BME280_pressure;Samples;Min_cycle;Max_cycle;Signal;HPM_P1;HPM_P2
2021/01/26 00:00:50;;;;;;;24.02;10.82;;;2.00;97.30;;;;;;5104509;28;20451;-80
2021/01/26 00:03:15;;;;;;;32.70;15.70;;;2.00;97.40;;;;;;5088872;28;20035;-80
2021/01/26 00:05:42;;;;;;;21.23;11.07;;;2.00;97.60;;;;;;5092124;28;20047;-80
2021/01/26 00:08:07;;;;;;;21.50;11.25;;;2.10;97.30;;;;;;5072620;28;20031;-80
2021/01/26 00:10:33;;;;;;;21.35;12.43;;;2.10;97.20;;;;;;5090901;28;20402;-81
2021/01/26 00:12:58;;;;;;;18.55;9.73;;;2.10;97.30;;;;;;5072947;28;20065;-80
2021/01/26 00:15:24;;;;;;;13.15;6.38;;;2.10;97.40;;;;;;5089733;28;20478;-80
2021/01/26 00:17:49;;;;;;;13.77;7.15;;;2.10;97.50;;;;;;5090095;28;20479;-80
2021/01/26 00:20:15;;;;;;;25.15;11.18;;;2.10;97.50;;;;;;5073621;28;20035;-82
2021/01/26 00:22:41;;;;;;;16.83;7.22;;;2.10;97.30;;;;;;5090475;28;20027;-80
2021/01/26 00:25:07;;;;;;;24.02;11.40;;;2.10;97.40;;;;;;5081717;28;20028;-80
2021/01/26 00:27:33;;;;;;;20.77;10.13;;;2.10;97.40;;;;;;5091835;28;20015;-81
2021/01/26 00:29:58;;;;;;;24.95;12.82;;;2.10;97.40;;;;;;5103664;27;20025;-81
2021/01/26 00:32:24;;;;;;;16.20;8.50;;;2.00;97.40;;;;;;5088477;28;20061;-81
2021/01/26 00:34:51;;;;;;;20.25;10.20;;;1.90;97.40;;;;;;5074120;28;20419;-82
2021/01/26 00:37:16;;;;;;;17.08;10.63;;;2.00;97.50;;;;;;5092790;28;20039;-81
2021/01/26 00:39:42;;;;;;;22.92;12.20;;;2.00;97.40;;;;;;5084711;27;20042;-80
2021/01/26 00:42:07;;;;;;;19.85;10.60;;;2.00;97.30;;;;;;5092821;27;20035;-80
2021/01/26 00:44:33;;;;;;;25.73;11.90;;;2.00;97.50;;;;;;5094156;27;20027;-81
2021/01/26 00:46:59;;;;;;;19.88;9.98;;;2.00;97.40;;;;;;5108763;27;20470;-79
2021/01/26 00:49:24;;;;;;;11.82;7.45;;;2.00;97.50;;;;;;5091979;27;20118;-81
2021/01/26 00:51:50;;;;;;;19.33;9.60;;;2.00;97.50;;;;;;5108050;27;20219;-80
2021/01/26 00:54:15;;;;;;;28.15;14.73;;;2.10;97.50;;;;;;5091722;27;20031;-80
2021/01/26 00:56:41;;;;;;;20.63;12.57;;;2.10;97.60;;;;;;5095378;27;20103;-79
2021/01/26 00:59:06;;;;;;;27.00;14.18;;;2.10;97.60;;;;;;5092980;27;20465;-81
2021/01/26 01:01:32;;;;;;;19.58;9.07;;;2.10;97.50;;;;;;5093266;27;20110;-80
2021/01/26 01:03:57;;;;;;;24.40;11.55;;;2.10;97.70;;;;;;5005160;27;20044;-81
2021/01/26 01:06:23;;;;;;;25.38;16.25;;;2.10;97.60;;;;;;5083992;27;20063;-80
2021/01/26 01:08:48;;;;;;;25.73;13.30;;;2.10;97.60;;;;;;5108390;27;20142;-80
2021/01/26 01:11:14;;;;;;;16.30;8.75;;;2.00;97.60;;;;;;5075482;27;20443;-79
2021/01/26 01:13:39;;;;;;;22.15;16.02;;;2.00;97.70;;;;;;5092568;27;20047;-80
2021/01/26 01:16:05;;;;;;;23.63;12.75;;;2.10;97.70;;;;;;5091474;27;20485;-79
2021/01/26 01:18:30;;;;;;;16.17;9.63;;;2.10;97.60;;;;;;5088268;27;20042;-80
2021/01/26 01:20:56;;;;;;;22.83;10.85;;;2.00;97.60;;;;;;5106132;27;20034;-80
2021/01/26 01:23:21;;;;;;;27.77;11.75;;;2.10;97.60;;;;;;5097885;28;20047;-79
2021/01/26 01:25:47;;;;;;;17.92;9.75;;;2.10;97.70;;;;;;5101595;27;20070;-79
2021/01/26 01:28:12;;;;;;;19.08;9.35;;;2.00;97.70;;;;;;5084569;27;20059;-79
2021/01/26 01:30:38;;;;;;;24.20;13.40;;;2.10;97.70;;;;;;5076986;28;20032;-80
2021/01/26 01:33:04;;;;;;;24.63;11.23;;;2.10;97.60;;;;;;5073262;27;20104;-78
2021/01/26 01:35:30;;;;;;;19.25;10.60;;;2.10;97.60;;;;;;5104520;27;20047;-79
2021/01/26 01:37:56;;;;;;;24.70;16.02;;;2.10;97.70;;;;;;5075989;27;20066;-79
2021/01/26 01:40:27;;;;;;;21.27;8.98;;;2.10;97.70;;;;;;5076129;27;20114;-79
2021/01/26 01:42:53;;;;;;;11.90;6.57;;;2.10;97.70;;;;;;5098987;27;20020;-80
2021/01/26 01:45:19;;;;;;;19.45;8.77;;;2.10;97.70;;;;;;5080948;27;20541;-79
2021/01/26 01:47:55;;;;;;;14.15;8.27;;;2.20;97.70;;;;;;5090620;27;20049;-79
2021/01/26 01:50:49;;;;;;;15.27;8.10;;;2.10;97.70;;;;;;5087844;27;20138;-79
2021/01/26 01:53:43;;;;;;;26.30;13.80;;;2.10;97.80;;;;;;5106632;27;20134;-79
2021/01/26 01:56:18;;;;;;;19.48;8.98;;;2.10;97.90;;;;;;5126170;27;20027;-80
2021/01/26 01:58:49;;;;;;;22.55;11.98;;;2.20;97.90;;;;;;5094384;27;20027;-80
2021/01/26 02:01:16;;;;;;;23.80;12.20;;;2.10;97.80;;;;;;5090972;27;20048;-80
2021/01/26 02:03:51;;;;;;;22.60;12.35;;;2.20;97.80;;;;;;5083917;27;20027;-80
2021/01/26 02:06:16;;;;;;;15.05;8.68;;;2.20;97.80;;;;;;5103026;27;20035;-80
2021/01/26 02:08:53;;;;;;;19.88;10.35;;;2.20;97.90;;;;;;5092602;27;20034;-80
2021/01/26 02:11:19;;;;;;;23.88;11.55;;;2.20;97.90;;;;;;5104648;27;20062;-80
2021/01/26 02:13:45;;;;;;;16.92;9.40;;;2.20;98.00;;;;;;5110619;27;20479;-80
2021/01/26 02:16:11;;;;;;;20.00;12.02;;;2.20;98.30;;;;;;5108252;27;20496;-81
2021/01/26 02:18:40;;;;;;;24.13;11.52;;;2.20;97.90;;;;;;5089505;27;20510;-80
2021/01/26 02:21:37;;;;;;;25.42;14.48;;;2.20;97.90;;;;;;5107038;27;20043;-79
2021/01/26 02:24:36;;;;;;;18.15;10.10;;;2.30;98.00;;;;;;5106364;27;20073;-80
2021/01/26 02:27:26;;;;;;;27.05;12.18;;;2.30;98.00;;;;;;5106563;27;20023;-80
2021/01/26 02:30:06;;;;;;;19.13;11.88;;;2.30;97.90;;;;;;5108874;27;20034;-79
2021/01/26 02:32:39;;;;;;;26.88;9.40;;;2.30;98.00;;;;;;5092751;27;20054;-80
2021/01/26 02:35:44;;;;;;;16.38;9.68;;;2.30;98.00;;;;;;5104447;27;20169;-80
2021/01/26 02:38:56;;;;;;;17.42;9.90;;;2.30;98.00;;;;;;5096689;27;20080;-80
2021/01/26 02:41:31;;;;;;;17.58;8.23;;;2.30;98.10;;;;;;5014259;28;20100;-80
2021/01/26 02:44:20;;;;;;;21.67;9.27;;;2.30;98.00;;;;;;4966671;28;20030;-80
2021/01/26 02:46:46;;;;;;;17.67;9.85;;;2.30;98.00;;;;;;5032293;27;20058;-80
2021/01/26 02:49:21;;;;;;;9.98;5.07;;;2.30;98.00;;;;;;5083178;27;20031;-80
2021/01/26 02:52:08;;;;;;;12.40;7.38;;;2.40;98.00;;;;;;5095312;27;20049;-79
2021/01/26 02:55:10;;;;;;;22.45;12.18;;;2.30;97.90;;;;;;5042854;27;20164;-80
2021/01/26 02:57:43;;;;;;;22.70;11.48;;;2.30;98.20;;;;;;5086663;27;20027;-81
2021/01/26 03:00:14;;;;;;;18.90;9.32;;;2.30;98.20;;;;;;5091720;27;20035;-80
2021/01/26 03:03:01;;;;;;;13.10;6.25;;;2.30;98.20;;;;;;5083119;27;20041;-81
2021/01/26 03:05:38;;;;;;;22.08;13.32;;;2.30;98.20;;;;;;5088876;27;20531;-81
2021/01/26 03:08:10;;;;;;;17.45;9.23;;;2.30;98.20;;;;;;5105035;27;20034;-81
2021/01/26 03:10:38;;;;;;;21.08;10.95;;;2.40;98.10;;;;;;5065283;27;20043;-80
2021/01/26 03:13:06;;;;;;;15.63;8.95;;;2.40;98.30;;;;;;5088721;27;20077;-80
2021/01/26 03:15:35;;;;;;;13.73;7.40;;;2.40;98.20;;;;;;5090243;27;20034;-81
2021/01/26 03:18:05;;;;;;;15.07;7.53;;;2.30;98.20;;;;;;5091919;27;20024;-80
2021/01/26 03:20:57;;;;;;;7.47;4.68;;;2.40;98.20;;;;;;5089018;27;20565;-80
2021/01/26 03:23:27;;;;;;;25.98;10.23;;;2.40;98.10;;;;;;5102915;27;20486;-81
2021/01/26 03:25:53;;;;;;;12.27;6.50;;;2.30;98.30;;;;;;5076401;27;20061;-79
2021/01/26 03:28:19;;;;;;;13.02;7.07;;;2.40;98.30;;;;;;5082214;27;20406;-80
2021/01/26 03:30:46;;;;;;;11.15;6.45;;;2.40;98.50;;;;;;5092779;27;20023;-81
2021/01/26 03:33:21;;;;;;;10.40;6.50;;;2.40;98.20;;;;;;5094388;27;20046;-80
2021/01/26 03:35:46;;;;;;;12.63;7.60;;;2.50;98.20;;;;;;5075568;27;20482;-80
2021/01/26 03:38:23;;;;;;;12.05;4.72;;;2.50;98.30;;;;;;5104620;27;20093;-80
2021/01/26 03:40:50;;;;;;;15.20;6.50;;;2.40;98.40;;;;;;5101902;27;20066;-80
2021/01/26 03:43:15;;;;;;;19.17;7.88;;;2.50;98.50;;;;;;5070121;27;20087;-79
2021/01/26 03:45:41;;;;;;;11.70;6.45;;;2.50;98.50;;;;;;5089799;27;20032;-80
2021/01/26 03:48:36;;;;;;;15.25;6.95;;;2.50;98.50;;;;;;5080551;27;20063;-80
2021/01/26 03:51:08;;;;;;;7.78;5.25;;;2.50;98.50;;;;;;5100642;27;20035;-80
2021/01/26 03:53:39;;;;;;;7.70;4.43;;;2.50;98.40;;;;;;5069580;27;20042;-80
2021/01/26 03:56:17;;;;;;;10.20;5.53;;;2.50;98.30;;;;;;5088541;27;20019;-81
2021/01/26 03:59:20;;;;;;;22.63;6.50;;;2.50;98.40;;;;;;5106006;27;20109;-81
2021/01/26 04:01:53;;;;;;;8.80;3.83;;;2.60;98.30;;;;;;5106479;28;20023;-80
2021/01/26 04:04:21;;;;;;;10.80;5.78;;;2.50;98.30;;;;;;5068807;27;20062;-82
2021/01/26 04:06:54;;;;;;;11.70;5.07;;;2.50;98.30;;;;;;5106205;28;20082;-82
2021/01/26 04:09:25;;;;;;;7.95;4.93;;;2.50;98.20;;;;;;5088973;28;20116;-80
2021/01/26 04:12:00;;;;;;;7.85;5.97;;;2.50;98.20;;;;;;5090128;28;20501;-81
2021/01/26 04:14:37;;;;;;;8.98;4.75;;;2.50;98.20;;;;;;5075080;27;20035;-80
2021/01/26 04:17:11;;;;;;;9.25;3.88;;;2.50;98.30;;;;;;5086745;27;20027;-82
2021/01/26 04:19:41;;;;;;;14.10;7.03;;;2.50;98.30;;;;;;5109843;27;20035;-80
2021/01/26 04:22:08;;;;;;;7.25;3.47;;;2.50;98.20;;;;;;5110193;27;20038;-81
2021/01/26 04:24:34;;;;;;;9.02;4.45;;;2.50;98.40;;;;;;5094704;27;20035;-81
2021/01/26 04:27:12;;;;;;;7.50;4.35;;;2.50;98.40;;;;;;5095355;27;20050;-80
2021/01/26 04:29:37;;;;;;;6.53;3.92;;;2.50;98.30;;;;;;5092983;27;20113;-81
2021/01/26 04:32:03;;;;;;;18.55;6.78;;;2.50;98.40;;;;;;5111259;27;20030;-80
2021/01/26 04:34:29;;;;;;;11.02;4.90;;;2.50;98.30;;;;;;5109106;27;20032;-80
2021/01/26 04:36:54;;;;;;;13.98;5.95;;;2.50;98.30;;;;;;5089356;27;20027;-80
2021/01/26 04:39:20;;;;;;;16.08;6.47;;;2.50;98.30;;;;;;5101951;27;20059;-80
2021/01/26 04:41:59;;;;;;;15.52;5.00;;;2.50;98.30;;;;;;5078033;27;20391;-81
2021/01/26 04:44:46;;;;;;;6.55;3.97;;;2.50;98.30;;;;;;5092091;27;20035;-79
2021/01/26 04:47:23;;;;;;;11.50;4.13;;;2.50;98.40;;;;;;5101168;27;20031;-80
2021/01/26 04:49:58;;;;;;;7.90;4.47;;;2.60;98.30;;;;;;5103731;27;20034;-80
2021/01/26 04:52:30;;;;;;;14.98;6.18;;;2.50;98.30;;;;;;5084552;27;20035;-81
2021/01/26 04:55:04;;;;;;;14.32;6.35;;;2.50;98.40;;;;;;5090853;27;20035;-82
2021/01/26 04:58:06;;;;;;;16.08;5.75;;;2.50;98.40;;;;;;5110796;27;20039;-80
2021/01/26 05:01:13;;;;;;;4.47;1.67;;;2.50;98.50;;;;;;5108221;27;20038;-80
2021/01/26 05:03:55;;;;;;;14.73;4.30;;;2.50;98.40;;;;;;5090752;27;20339;-80
2021/01/26 05:06:23;;;;;;;7.70;4.10;;;2.50;98.30;;;;;;5092567;27;20491;-79
2021/01/26 05:08:50;;;;;;;10.10;4.85;;;2.50;98.50;;;;;;5111148;27;20042;-81
2021/01/26 05:11:18;;;;;;;5.80;3.22;;;2.60;98.30;;;;;;5111555;27;20035;-80
2021/01/26 05:13:51;;;;;;;6.82;3.05;;;2.60;98.30;;;;;;5110856;27;20031;-81
2021/01/26 05:16:46;;;;;;;5.90;3.50;;;2.60;98.50;;;;;;5104954;27;20494;-80
2021/01/26 05:19:20;;;;;;;13.43;4.50;;;2.60;98.10;;;;;;5086382;27;20027;-80
2021/01/26 05:21:55;;;;;;;7.35;2.55;;;2.60;98.10;;;;;;5076848;27;20054;-79
2021/01/26 05:24:34;;;;;;;10.27;3.00;;;2.60;98.10;;;;;;5088382;27;20038;-78
2021/01/26 05:27:02;;;;;;;18.85;4.57;;;2.60;98.10;;;;;;5120216;27;20027;-80
2021/01/26 05:29:29;;;;;;;5.50;3.22;;;2.60;98.10;;;;;;5101445;27;20054;-81
2021/01/26 05:31:58;;;;;;;9.90;3.67;;;2.60;98.30;;;;;;5111074;27;20043;-79
2021/01/26 05:34:25;;;;;;;9.88;5.28;;;2.60;98.40;;;;;;5089038;27;20032;-80
2021/01/26 05:36:50;;;;;;;11.48;4.57;;;2.50;98.40;;;;;;5090241;27;20047;-79
2021/01/26 05:39:22;;;;;;;19.02;6.15;;;2.50;98.40;;;;;;5093252;27;20074;-80
2021/01/26 05:41:48;;;;;;;9.60;3.22;;;2.50;98.60;;;;;;5088530;27;20031;-80
2021/01/26 05:44:14;;;;;;;16.05;5.22;;;2.60;98.30;;;;;;5089993;27;20087;-81
2021/01/26 05:46:44;;;;;;;8.40;3.22;;;2.60;98.30;;;;;;5109985;27;20143;-80
2021/01/26 05:49:09;;;;;;;7.82;2.58;;;2.60;98.40;;;;;;5056509;27;20034;-80
2021/01/26 05:51:36;;;;;;;12.43;3.60;;;2.60;98.40;;;;;;5091239;27;20035;-81
2021/01/26 05:54:08;;;;;;;9.60;4.43;;;2.60;98.40;;;;;;5090999;27;20030;-82
2021/01/26 05:56:33;;;;;;;11.05;5.00;;;2.60;98.40;;;;;;5104093;27;20023;-81
2021/01/26 05:58:59;;;;;;;8.52;3.47;;;2.60;98.50;;;;;;5077902;27;20038;-82
2021/01/26 06:01:29;;;;;;;10.27;3.92;;;2.60;98.60;;;;;;5105661;27;20027;-82
2021/01/26 06:04:16;;;;;;;13.63;5.22;;;2.60;98.40;;;;;;5109325;27;20439;-82
2021/01/26 06:06:52;;;;;;;8.40;5.07;;;2.60;98.60;;;;;;5108330;27;20411;-82
2021/01/26 06:09:32;;;;;;;13.35;5.78;;;2.60;98.60;;;;;;5093224;27;20031;-83
2021/01/26 06:12:25;;;;;;;18.80;5.15;;;2.50;98.60;;;;;;5109034;27;20490;-82
2021/01/26 06:14:59;;;;;;;18.15;6.28;;;2.60;98.70;;;;;;5087492;27;20035;-82
2021/01/26 06:17:27;;;;;;;9.65;4.35;;;2.60;98.50;;;;;;5102501;27;20046;-82
2021/01/26 06:20:05;;;;;;;14.63;6.15;;;2.60;98.50;;;;;;5109104;27;20027;-81
2021/01/26 06:22:31;;;;;;;10.90;3.70;;;2.60;98.60;;;;;;5107028;27;20165;-82
2021/01/26 06:24:57;;;;;;;18.20;7.22;;;2.60;98.60;;;;;;5107861;27;20035;-82
2021/01/26 06:27:33;;;;;;;13.32;6.13;;;2.60;98.50;;;;;;5089164;27;20031;-82
2021/01/26 06:30:20;;;;;;;14.52;7.05;;;2.60;98.40;;;;;;5108355;27;20522;-82
2021/01/26 06:33:17;;;;;;;12.35;6.90;;;2.60;98.50;;;;;;5109710;27;20381;-82
2021/01/26 06:36:12;;;;;;;19.55;5.88;;;2.70;98.40;;;;;;5108745;27;20088;-81
2021/01/26 06:39:02;;;;;;;10.15;4.80;;;2.70;98.40;;;;;;5090483;27;20181;-81
2021/01/26 06:42:03;;;;;;;10.48;4.80;;;2.70;98.30;;;;;;5124749;27;20040;-82
2021/01/26 06:45:01;;;;;;;13.90;5.60;;;2.70;98.30;;;;;;5087900;27;20027;-80
2021/01/26 06:47:36;;;;;;;11.45;4.97;;;2.70;98.50;;;;;;5080347;27;20069;-80
2021/01/26 06:50:07;;;;;;;8.38;5.00;;;2.70;98.50;;;;;;5087750;27;20433;-81
2021/01/26 06:52:39;;;;;;;14.75;6.10;;;2.70;98.60;;;;;;5086702;27;20036;-81
2021/01/26 06:55:27;;;;;;;8.15;5.38;;;2.70;98.60;;;;;;5107687;27;20057;-81
2021/01/26 06:58:02;;;;;;;10.90;6.72;;;2.70;98.50;;;;;;5091255;27;20020;-80
2021/01/26 07:00:42;;;;;;;20.30;7.10;;;2.70;98.50;;;;;;5100540;27;20039;-80
2021/01/26 07:03:32;;;;;;;15.55;5.65;;;2.70;98.50;;;;;;5091581;27;20434;-81
2021/01/26 07:06:07;;;;;;;13.57;5.85;;;2.70;98.50;;;;;;5105570;27;20055;-81
2021/01/26 07:08:32;;;;;;;15.13;5.90;;;2.70;98.70;;;;;;5090871;27;20028;-81
2021/01/26 07:11:18;;;;;;;16.80;7.60;;;2.70;98.60;;;;;;5107713;27;20023;-80
2021/01/26 07:14:08;;;;;;;16.88;7.55;;;2.80;98.40;;;;;;5090625;27;20031;-83
2021/01/26 07:16:53;;;;;;;20.48;7.53;;;2.70;98.80;;;;;;5109550;27;20038;-81
2021/01/26 07:19:39;;;;;;;5.60;3.58;;;2.70;98.70;;;;;;5090035;27;20023;-80
2021/01/26 07:22:19;;;;;;;10.20;5.00;;;2.70;98.70;;;;;;5092437;27;20074;-81
2021/01/26 07:24:54;;;;;;;8.13;4.78;;;2.80;98.60;;;;;;5108516;27;20038;-80
2021/01/26 07:27:36;;;;;;;10.23;5.53;;;2.70;98.70;;;;;;5098651;27;20027;-80
2021/01/26 07:30:16;;;;;;;9.40;4.28;;;2.70;98.80;;;;;;5087320;27;20031;-80
2021/01/26 07:32:52;;;;;;;8.30;5.70;;;2.80;98.50;;;;;;5076292;27;20121;-80
2021/01/26 07:35:30;;;;;;;;;;;2.80;98.50;;;;;;5107827;27;20472;-80
2021/01/26 07:38:18;;;;;;;11.55;5.15;;;2.80;98.60;;;;;;5086102;28;20044;-81
2021/01/26 07:41:01;;;;;;;8.63;4.07;;;2.80;98.90;;;;;;5073295;27;20034;-79
2021/01/26 07:43:59;;;;;;;9.40;5.65;;;2.80;98.40;;;;;;5107235;27;20030;-80
2021/01/26 07:46:31;;;;;;;14.60;6.55;;;2.80;98.40;;;;;;5086979;27;20031;-80
2021/01/26 07:49:02;;;;;;;4.55;2.88;;;2.80;98.50;;;;;;5076930;27;20551;-80
2021/01/26 07:51:31;;;;;;;10.48;4.25;;;2.80;98.40;;;;;;5104194;27;20041;-81
2021/01/26 07:54:18;;;;;;;7.18;3.70;;;2.80;98.40;;;;;;5071957;27;20108;-81
2021/01/26 07:56:44;;;;;;;;;;;2.80;98.50;;;;;;5072441;27;20039;-80
2021/01/26 07:59:38;;;;;;;16.77;5.72;;;2.80;98.50;;;;;;5090166;27;19916;-81
2021/01/26 08:02:15;;;;;;;17.25;7.45;;;2.90;98.40;;;;;;5120942;27;20503;-80
2021/01/26 08:04:41;;;;;;;19.45;8.88;;;2.80;98.60;;;;;;5093765;27;20034;-80
2021/01/26 08:07:06;;;;;;;14.00;7.82;;;2.80;98.50;;;;;;5075005;27;20036;-80
2021/01/26 08:09:45;;;;;;;5.07;3.80;;;2.90;98.40;;;;;;5105774;28;20114;-80
2021/01/26 08:12:13;;;;;;;13.23;5.60;;;2.90;98.30;;;;;;5088234;28;20379;-80
2021/01/26 08:15:06;;;;;;;8.45;4.45;;;2.90;98.30;;;;;;5095345;28;20024;-81
2021/01/26 08:17:32;;;;;;;14.93;6.90;;;2.90;98.30;;;;;;5077886;28;20039;-81
2021/01/26 08:20:24;;;;;;;10.25;6.55;;;2.90;98.50;;;;;;5104045;28;20043;-81
2021/01/26 08:23:18;;;;;;;17.70;6.05;;;2.90;98.40;;;;;;5118275;28;20031;-80
2021/01/26 08:25:44;;;;;;;21.60;9.07;;;2.90;98.40;;;;;;5089975;28;20039;-79
2021/01/26 08:28:10;;;;;;;20.02;9.57;;;2.90;98.60;;;;;;5089207;28;20496;-80
2021/01/26 08:30:36;;;;;;;7.75;4.30;;;2.90;98.90;;;;;;5075134;28;20115;-81
2021/01/26 08:33:17;;;;;;;21.10;8.93;;;2.90;98.70;;;;;;5102355;28;20468;-80
2021/01/26 08:36:07;;;;;;;25.90;9.15;;;3.00;98.80;;;;;;5096465;28;20034;-81
2021/01/26 08:38:53;;;;;;;13.20;5.95;;;3.00;98.60;;;;;;5100213;27;20460;-80
2021/01/26 08:41:41;;;;;;;9.03;5.73;;;3.00;98.50;;;;;;5064818;28;20027;-80
2021/01/26 08:44:20;;;;;;;25.58;10.13;;;3.00;98.60;;;;;;5098756;28;20084;-80
2021/01/26 08:46:49;;;;;;;22.30;8.57;;;3.00;98.80;;;;;;5088889;28;20023;-81
2021/01/26 08:49:30;;;;;;;13.40;6.38;;;3.10;98.80;;;;;;5090489;28;20031;-80
2021/01/26 08:51:55;;;;;;;15.82;7.22;;;3.10;98.70;;;;;;5119977;28;20186;-81
2021/01/26 08:54:43;;;;;;;10.50;5.63;;;3.10;98.90;;;;;;5089520;28;20390;-81
2021/01/26 08:57:42;;;;;;;22.63;12.13;;;3.10;98.90;;;;;;5100867;28;20444;-81
2021/01/26 09:00:13;;;;;;;19.85;9.05;;;3.20;99.10;;;;;;5074527;27;20035;-81
2021/01/26 09:02:40;;;;;;;12.05;7.15;;;3.20;98.90;;;;;;5128602;27;20027;-81
2021/01/26 09:05:06;;;;;;;22.85;13.18;;;3.20;99.20;;;;;;5109701;27;20603;-81
2021/01/26 09:07:45;;;;;;;22.95;10.50;;;3.20;99.20;;;;;;5108269;27;20035;-80
2021/01/26 09:10:26;;;;;;;20.52;9.18;;;3.20;99.20;;;;;;5094083;27;20027;-81
2021/01/26 09:12:58;;;;;;;15.88;9.38;;;3.20;98.90;;;;;;5076152;27;20138;-81
2021/01/26 09:15:23;;;;;;;24.08;11.95;;;3.20;98.50;;;;;;5078606;27;20039;-82
2021/01/26 09:17:49;;;;;;;13.25;7.90;;;3.20;99.10;;;;;;5093433;27;20511;-81
2021/01/26 09:20:16;;;;;;;20.40;9.18;;;3.20;98.70;;;;;;5092669;27;20031;-81
2021/01/26 09:22:42;;;;;;;23.63;10.55;;;3.20;98.90;;;;;;5108758;27;20035;-82
2021/01/26 09:25:15;;;;;;;13.60;6.70;;;3.20;99.00;;;;;;5076609;27;20383;-82
2021/01/26 09:27:41;;;;;;;11.88;4.10;;;3.20;99.00;;;;;;5094530;27;20486;-80
2021/01/26 09:30:21;;;;;;;12.80;5.03;;;3.30;99.00;;;;;;5077574;27;20031;-82
2021/01/26 09:32:58;;;;;;;18.33;10.93;;;3.30;98.80;;;;;;5088463;27;20570;-81
2021/01/26 09:35:27;;;;;;;12.05;5.13;;;3.30;99.00;;;;;;5093031;27;20432;-81
2021/01/26 09:38:10;;;;;;;11.57;8.43;;;3.30;98.90;;;;;;5095049;27;20085;-80
2021/01/26 09:40:37;;;;;;;22.45;10.55;;;3.40;98.80;;;;;;5073045;28;20151;-82
2021/01/26 09:43:17;;;;;;;14.55;7.93;;;3.40;98.90;;;;;;5071677;27;20103;-81
2021/01/26 09:45:43;;;;;;;11.93;6.07;;;3.40;99.00;;;;;;5094864;27;20751;-82
2021/01/26 09:48:13;;;;;;;17.45;9.60;;;3.40;98.90;;;;;;5086562;27;20031;-82
2021/01/26 09:50:38;;;;;;;16.35;7.57;;;3.40;99.10;;;;;;5095483;27;20035;-82
2021/01/26 09:53:04;;;;;;;25.75;13.50;;;3.40;99.20;;;;;;5110074;27;20035;-81
2021/01/26 09:55:30;;;;;;;17.00;11.35;;;3.50;99.20;;;;;;5090096;27;20027;-83
2021/01/26 09:57:56;;;;;;;27.50;12.57;;;3.50;99.00;;;;;;5110333;27;20035;-81
2021/01/26 10:00:23;;;;;;;19.98;12.02;;;3.50;99.30;;;;;;5091870;27;20027;-80
2021/01/26 10:02:55;;;;;;;17.63;9.63;;;3.50;99.50;;;;;;5088400;27;20027;-82
2021/01/26 10:05:22;;;;;;;26.45;12.55;;;3.50;99.00;;;;;;5089561;27;20455;-82
2021/01/26 10:08:24;;;;;;;15.65;9.75;;;3.50;99.10;;;;;;5106564;27;20027;-80
2021/01/26 10:10:50;;;;;;;24.55;12.77;;;3.60;99.10;;;;;;5008924;28;20048;-81
2021/01/26 10:13:20;;;;;;;20.30;9.45;;;3.60;99.00;;;;;;5068082;27;20027;-83
2021/01/26 10:15:46;;;;;;;24.13;12.60;;;3.70;98.90;;;;;;5075392;27;20035;-80
2021/01/26 10:18:18;;;;;;;20.92;10.80;;;3.70;99.40;;;;;;5076251;28;20023;-81
2021/01/26 10:20:44;;;;;;;14.18;9.48;;;3.70;98.70;;;;;;5094794;27;20121;-81
2021/01/26 10:23:33;;;;;;;16.30;10.35;;;3.80;98.70;;;;;;5126307;27;20106;-81
2021/01/26 10:26:12;;;;;;;26.42;13.90;;;3.80;98.60;;;;;;5091116;27;20024;-82
2021/01/26 10:28:59;;;;;;;10.70;5.25;;;3.80;99.20;;;;;;5086959;27;20032;-82
2021/01/26 10:31:24;;;;;;;23.05;8.57;;;3.80;98.10;;;;;;5071444;27;20039;-81
2021/01/26 10:33:50;;;;;;;19.08;9.90;;;3.80;99.00;;;;;;5105974;27;20031;-82
2021/01/26 10:36:29;;;;;;;19.15;10.32;;;3.80;98.50;;;;;;5090615;27;20463;-82
2021/01/26 10:38:55;;;;;;;18.85;10.93;;;3.80;98.70;;;;;;5129685;27;20028;-82
2021/01/26 10:41:36;;;;;;;26.20;12.18;;;3.80;98.70;;;;;;5093754;27;20042;-81
2021/01/26 10:44:07;;;;;;;16.40;9.30;;;3.90;98.70;;;;;;5102353;27;20387;-82
2021/01/26 10:46:37;;;;;;;29.20;14.52;;;3.90;99.00;;;;;;5101137;27;20035;-80
2021/01/26 10:49:33;;;;;;;21.13;11.40;;;3.90;99.80;;;;;;5091039;27;20115;-82
2021/01/26 10:52:04;;;;;;;16.02;6.97;;;3.90;98.90;;;;;;5087766;27;20043;-81
2021/01/26 10:54:29;;;;;;;24.38;11.75;;;3.90;99.00;;;;;;5093010;27;20027;-81
2021/01/26 10:56:55;;;;;;;19.48;8.70;;;4.00;99.10;;;;;;5087486;28;20355;-81
2021/01/26 10:59:21;;;;;;;16.67;8.07;;;4.00;99.20;;;;;;5105434;27;20497;-81
2021/01/26 11:01:47;;;;;;;14.75;7.93;;;3.90;98.70;;;;;;5107707;27;20055;-82
2021/01/26 11:04:12;;;;;;;23.73;9.07;;;4.00;99.40;;;;;;5062451;27;20062;-82
2021/01/26 11:06:38;;;;;;;23.30;11.50;;;4.00;99.10;;;;;;5075716;27;20036;-82
2021/01/26 11:09:07;;;;;;;14.68;10.25;;;4.10;99.00;;;;;;5089667;27;20488;-82
2021/01/26 11:11:33;;;;;;;14.13;7.72;;;4.20;99.90;;;;;;5097840;27;20450;-83
2021/01/26 11:13:59;;;;;;;21.02;11.70;;;4.20;99.50;;;;;;5089159;27;20043;-82
2021/01/26 11:16:25;;;;;;;12.73;8.88;;;4.30;99.30;;;;;;5104950;27;20479;-81
2021/01/26 11:18:51;;;;;;;18.23;9.13;;;4.30;99.30;;;;;;5103581;27;20899;-81
2021/01/26 11:21:16;;;;;;;19.75;10.77;;;4.30;99.30;;;;;;5093849;27;20047;-82
2021/01/26 11:23:42;;;;;;;26.77;13.93;;;4.40;99.90;;;;;;5075377;27;20034;-82
2021/01/26 11:26:10;;;;;;;17.30;4.97;;;4.40;99.80;;;;;;5075944;27;20053;-82
2021/01/26 11:28:36;;;;;;;20.92;11.77;;;4.40;99.10;;;;;;5093116;27;20039;-82
2021/01/26 11:31:02;;;;;;;17.17;8.27;;;4.50;99.90;;;;;;5089344;27;20031;-82
2021/01/26 11:33:27;;;;;;;18.15;10.52;;;4.50;99.90;;;;;;5088152;27;20448;-82
2021/01/26 11:35:53;;;;;;;23.60;9.85;;;4.50;99.90;;;;;;5074393;27;20514;-82
2021/01/26 11:38:19;;;;;;;14.73;9.30;;;4.50;99.60;;;;;;5091655;27;20039;-82
2021/01/26 11:40:45;;;;;;;21.60;11.52;;;4.50;99.20;;;;;;5075083;27;20121;-82
2021/01/26 11:43:10;;;;;;;22.27;12.30;;;4.60;99.40;;;;;;5087051;27;20043;-82
2021/01/26 11:45:37;;;;;;;22.95;10.13;;;4.60;99.90;;;;;;5091338;27;20031;-82
2021/01/26 11:48:04;;;;;;;21.23;12.15;;;4.60;99.80;;;;;;5104912;27;20386;-82
2021/01/26 11:50:29;;;;;;;22.17;11.90;;;4.70;99.90;;;;;;5086443;27;20118;-83
2021/01/26 11:52:55;;;;;;;22.58;11.98;;;4.80;99.90;;;;;;5107506;27;20513;-84
2021/01/26 11:55:26;;;;;;;19.08;11.30;;;4.90;99.90;;;;;;5086293;27;20038;-84
2021/01/26 11:57:51;;;;;;;18.52;9.80;;;4.90;99.90;;;;;;5091671;27;20039;-83
2021/01/26 12:00:22;;;;;;;15.13;9.20;;;5.00;99.80;;;;;;5103000;27;20083;-86
2021/01/26 12:02:47;;;;;;;24.40;12.55;;;5.00;99.90;;;;;;5085197;28;20031;-83
2021/01/26 12:05:13;;;;;;;23.38;12.75;;;5.10;99.90;;;;;;5089561;28;20042;-82
2021/01/26 12:07:39;;;;;;;16.67;9.10;;;5.10;99.90;;;;;;5074991;27;20485;-82
2021/01/26 12:10:06;;;;;;;20.88;10.20;;;5.00;99.40;;;;;;5089574;28;20117;-82
2021/01/26 12:12:31;;;;;;;27.65;10.52;;;5.00;99.30;;;;;;5089219;28;20039;-82
2021/01/26 12:14:57;;;;;;;25.73;10.80;;;5.00;99.40;;;;;;5074770;28;20030;-83
2021/01/26 12:17:23;;;;;;;20.48;10.73;;;5.10;99.90;;;;;;5075887;28;20031;-82
2021/01/26 12:19:49;;;;;;;19.67;10.30;;;5.10;99.90;;;;;;5071566;28;20028;-82
2021/01/26 12:22:14;;;;;;;16.58;9.52;;;5.10;99.90;;;;;;5104259;28;20039;-81
2021/01/26 12:24:40;;;;;;;18.65;9.93;;;5.10;99.40;;;;;;5091762;28;20027;-82
2021/01/26 12:27:05;;;;;;;17.92;10.40;;;5.20;99.90;;;;;;5075417;27;20027;-82
2021/01/26 12:29:32;;;;;;;19.52;10.32;;;5.30;99.90;;;;;;5093386;28;20088;-82
2021/01/26 12:31:57;;;;;;;19.25;10.40;;;5.30;99.90;;;;;;5091647;27;20485;-82
2021/01/26 12:34:23;;;;;;;14.98;7.55;;;5.40;99.90;;;;;;5088760;27;20038;-83
2021/01/26 12:36:50;;;;;;;16.48;9.07;;;5.40;99.90;;;;;;5111890;27;20039;-83
2021/01/26 12:39:15;;;;;;;14.52;6.07;;;5.50;99.90;;;;;;5080266;27;20077;-82
2021/01/26 12:41:41;;;;;;;13.02;6.05;;;5.60;99.90;;;;;;5083634;27;20035;-81
2021/01/26 12:44:07;;;;;;;9.93;6.85;;;5.70;99.90;;;;;;5079647;27;20117;-82
2021/01/26 12:46:38;;;;;;;14.27;7.07;;;5.80;99.90;;;;;;5077060;27;20412;-82
2021/01/26 12:49:04;;;;;;;11.85;7.50;;;5.90;99.90;;;;;;5080799;27;20023;-82
2021/01/26 12:51:30;;;;;;;13.77;8.05;;;5.90;99.90;;;;;;5074247;27;20084;-83
2021/01/26 12:53:56;;;;;;;12.90;8.10;;;5.90;99.90;;;;;;5112867;27;20464;-81
2021/01/26 12:56:22;;;;;;;13.52;8.75;;;5.90;99.90;;;;;;5095497;27;20039;-84
2021/01/26 12:58:48;;;;;;;16.25;8.45;;;5.90;99.90;;;;;;5110500;27;20092;-82
2021/01/26 13:01:13;;;;;;;11.60;7.38;;;5.90;99.60;;;;;;5098282;27;20458;-83
2021/01/26 13:03:39;;;;;;;9.55;7.53;;;5.90;99.90;;;;;;5080973;27;20084;-84
2021/01/26 13:06:04;;;;;;;10.60;6.93;;;5.80;99.50;;;;;;5093157;27;20019;-83
2021/01/26 13:08:30;;;;;;;14.13;7.53;;;5.90;99.90;;;;;;5084426;27;20031;-83
2021/01/26 13:10:55;;;;;;;13.30;7.50;;;5.90;99.20;;;;;;5077057;27;20027;-82
2021/01/26 13:13:21;;;;;;;14.65;7.10;;;6.00;99.90;;;;;;5089169;27;20084;-83